Burton, Texas
Current Conditions -  °F | °C
As of 9:55 AM on Wednesday 26 Nov 2014 (Local Time) from K11R Reporting Station
Clear Clear  
Wind Chill: 61°   Ceiling: Unl
Heat Index: 61°   Visibility: 10mi
Dew Point: 34°   Wind: 15mph
Humidity: 37%   Direction: 230°SW
Pressure: 30.24"   Gusts: 22mph
Location:  30.18°N, 96.6°W
Report Text: K11R 261555Z AUTO 23013G19KT 10SM CLR 16/01 A3024 RMK AO2 T01610012
Loading
Personal Weather Stations






























Interactive Weather Map New forecast layout! Learn more

10-Day Weather Forecast

Advertisements
Track Severe Weather on mobile